Time;durP1;ratioP1;P1;durP2;ratioP2;P2;SDS_P1;SDS_P2;PMS_P1;PMS_P2;Temp;Humidity;BMP_temperature;BMP_pressure;BME280_temperature;BME280_humidity;BME280_pressure;Samples;Min_cycle;Max_cycle;Signal;HPM_P1;HPM_P2
2022/09/06 00:00:48;;;;;;;3.23;2.17;;;10.00;99.90;9.30;101593;;;;578482;245;24091;-84
2022/09/06 00:03:20;;;;;;;5.33;1.93;;;10.00;99.90;9.20;101585;;;;590232;240;24035;-84
2022/09/06 00:05:44;;;;;;;1.97;1.80;;;9.90;99.90;9.20;101588;;;;598780;240;24044;-81
2022/09/06 00:08:13;;;;;;;5.07;2.10;;;9.80;99.90;9.10;101575;;;;577270;245;24105;-84
2022/09/06 00:10:41;;;;;;;3.30;2.30;;;9.70;99.90;8.90;101576;;;;599245;239;24093;-84
2022/09/06 00:13:11;;;;;;;5.07;2.40;;;9.60;99.90;8.90;101577;;;;589052;240;24130;-83
2022/09/06 00:15:39;;;;;;;4.23;2.10;;;9.60;99.90;8.90;101578;;;;585075;245;24061;-83
2022/09/06 00:18:04;;;;;;;3.10;2.37;;;9.50;99.90;8.80;101577;;;;598461;240;24058;-83
2022/09/06 00:20:35;;;;;;;4.97;2.13;;;9.50;99.90;8.80;101576;;;;576214;245;24119;-83
2022/09/06 00:23:03;;;;;;;4.37;2.30;;;9.40;99.90;8.70;101572;;;;598401;240;24043;-83
2022/09/06 00:25:28;;;;;;;2.87;2.57;;;9.40;99.90;8.70;101583;;;;573097;245;24068;-82
2022/09/06 00:27:58;;;;;;;2.40;1.80;;;9.30;99.90;8.70;101582;;;;592318;240;24085;-81
2022/09/06 00:30:29;;;;;;;2.00;1.90;;;9.30;99.90;8.60;101572;;;;584995;245;24116;-84
2022/09/06 00:32:57;;;;;;;1.97;1.87;;;9.30;99.90;8.60;101578;;;;598331;240;24070;-83
2022/09/06 00:35:25;;;;;;;2.80;1.97;;;9.30;99.90;8.60;101571;;;;575869;245;24099;-82
2022/09/06 00:37:50;;;;;;;2.77;2.33;;;9.20;99.90;8.50;101578;;;;591021;240;24036;-83
2022/09/06 00:40:18;;;;;;;2.33;2.07;;;9.20;99.90;8.50;101568;;;;576866;246;24206;-82
2022/09/06 00:42:46;;;;;;;2.70;1.80;;;9.10;99.90;8.40;101570;;;;576513;245;24046;-81
2022/09/06 00:45:14;;;;;;;2.90;2.20;;;9.10;99.90;8.40;101572;;;;599210;240;24042;-83
2022/09/06 00:47:45;;;;;;;2.40;2.20;;;9.00;99.90;8.30;101564;;;;576982;243;24088;-84
2022/09/06 00:50:10;;;;;;;2.50;2.30;;;8.90;99.90;8.20;101566;;;;590551;239;24041;-84
2022/09/06 00:52:41;;;;;;;5.37;2.17;;;8.90;99.90;8.20;101561;;;;577667;245;24087;-83
2022/09/06 00:55:05;;;;;;;1.83;1.73;;;8.80;99.90;8.10;101562;;;;599711;239;24053;-82
2022/09/06 00:57:33;;;;;;;4.50;2.37;;;8.80;99.90;8.00;101568;;;;586233;245;24059;-83
2022/09/06 01:00:04;;;;;;;2.47;1.90;;;8.70;99.90;8.10;101564;;;;599865;239;24055;-82
2022/09/06 01:02:29;;;;;;;2.83;2.33;;;8.70;99.90;8.00;101565;;;;577173;245;24067;-83
2022/09/06 01:04:57;;;;;;;3.40;2.40;;;8.70;99.90;8.00;101567;;;;590611;240;24109;-84
2022/09/06 01:07:46;;;;;;;2.97;2.77;;;8.60;99.90;8.00;101561;;;;574254;245;24057;-83
2022/09/06 01:10:38;;;;;;;3.23;2.80;;;8.70;99.90;8.00;101570;;;;594788;240;24062;-83
2022/09/06 01:13:28;;;;;;;5.17;2.97;;;8.70;99.90;8.10;101569;;;;585884;245;24050;-81
2022/09/06 01:16:10;;;;;;;4.93;2.80;;;8.70;99.90;8.20;101566;;;;590115;240;24066;-83
2022/09/06 01:19:06;;;;;;;3.23;2.93;;;8.90;99.90;8.30;101564;;;;577952;244;24130;-83
2022/09/06 01:21:34;;;;;;;3.90;3.00;;;8.90;99.90;8.40;101574;;;;590652;240;24106;-84
2022/09/06 01:24:17;;;;;;;2.47;2.20;;;9.00;99.90;8.50;101571;;;;585321;245;24183;-83
2022/09/06 01:26:51;;;;;;;3.67;2.47;;;9.10;99.90;8.60;101567;;;;589817;240;24024;-83
2022/09/06 01:29:43;;;;;;;2.50;2.00;;;9.20;99.90;8.70;101567;;;;584897;245;24052;-83
2022/09/06 01:32:20;;;;;;;4.13;2.93;;;9.30;99.90;8.80;101564;;;;588673;240;24168;-83
2022/09/06 01:34:49;;;;;;;4.87;2.73;;;9.60;99.90;8.90;101565;;;;577376;245;24088;-83
2022/09/06 01:37:20;;;;;;;4.40;3.33;;;9.50;99.90;9.00;101563;;;;598538;240;24031;-82
2022/09/06 01:39:48;;;;;;;4.40;3.77;;;9.60;99.90;9.10;101567;;;;575922;245;24082;-82
2022/09/06 01:42:18;;;;;;;8.47;4.00;;;9.70;99.90;9.10;101558;;;;598215;240;24084;-82
2022/09/06 01:44:54;;;;;;;5.17;3.60;;;9.80;99.90;9.20;101569;;;;576558;245;24103;-83
2022/09/06 01:47:38;;;;;;;6.33;4.10;;;9.90;99.90;9.20;101572;;;;586308;240;24067;-83
2022/09/06 01:50:27;;;;;;;5.33;3.53;;;9.80;99.90;9.30;101578;;;;573865;245;24093;-83
2022/09/06 01:53:23;;;;;;;7.13;4.10;;;10.00;99.90;9.30;101586;;;;589911;240;24032;-83
2022/09/06 01:56:21;;;;;;;7.20;3.43;;;10.00;99.90;9.40;101579;;;;576959;245;24133;-83
2022/09/06 01:59:00;;;;;;;6.43;4.30;;;10.00;99.90;9.50;101580;;;;589850;240;24052;-83
2022/09/06 02:02:05;;;;;;;7.57;3.93;;;10.10;99.90;9.60;101584;;;;579880;245;24138;-83
2022/09/06 02:04:36;;;;;;;6.10;4.07;;;10.20;99.90;9.60;101587;;;;590921;240;24084;-83
2022/09/06 02:07:05;;;;;;;6.13;4.07;;;10.20;99.90;9.70;101591;;;;590612;240;24051;-83
2022/09/06 02:09:33;;;;;;;6.73;4.53;;;10.30;99.90;9.70;101596;;;;577060;245;24172;-83
2022/09/06 02:12:04;;;;;;;6.37;3.30;;;10.30;99.90;9.80;101591;;;;599338;239;24079;-82
2022/09/06 02:14:35;;;;;;;7.10;3.80;;;10.40;99.90;9.80;101592;;;;585334;245;24116;-84
2022/09/06 02:17:06;;;;;;;6.33;3.50;;;10.40;99.90;9.80;101591;;;;564176;250;24091;-84
2022/09/06 02:19:42;;;;;;;7.33;3.63;;;10.50;99.90;9.90;101591;;;;585931;240;24030;-83
2022/09/06 02:22:11;;;;;;;7.40;3.87;;;10.50;99.90;9.90;101596;;;;576649;245;24062;-84
2022/09/06 02:24:39;;;;;;;4.03;3.10;;;10.50;99.90;10.00;101606;;;;599006;240;24052;-82
2022/09/06 02:27:07;;;;;;;3.90;3.13;;;10.50;99.90;10.00;101595;;;;598955;240;24050;-81
2022/09/06 02:29:35;;;;;;;5.53;2.53;;;10.60;99.90;10.10;101603;;;;587439;240;24055;-83
2022/09/06 02:32:23;;;;;;;3.10;2.37;;;10.60;99.90;10.10;101591;;;;589708;240;24090;-84
2022/09/06 02:34:52;;;;;;;3.57;2.73;;;10.80;99.90;10.20;101594;;;;586368;240;24063;-83
2022/09/06 02:37:20;;;;;;;3.20;2.67;;;10.80;99.90;10.20;101582;;;;589654;240;24089;-83
2022/09/06 02:39:49;;;;;;;2.97;2.60;;;10.90;99.90;10.30;101588;;;;599163;240;24103;-83
2022/09/06 02:42:17;;;;;;;2.87;2.30;;;10.80;99.90;10.30;101585;;;;586315;240;24036;-82
2022/09/06 02:44:45;;;;;;;3.83;2.63;;;10.90;99.90;10.40;101589;;;;586110;240;24110;-82
2022/09/06 02:47:12;;;;;;;2.97;2.67;;;11.00;99.90;10.40;101566;;;;573440;246;24124;-82
2022/09/06 02:49:40;;;;;;;2.50;2.30;;;11.00;99.90;10.50;101578;;;;576406;245;24173;-84
2022/09/06 02:52:08;;;;;;;4.50;2.40;;;11.10;99.90;10.50;101566;;;;598723;240;24046;-83
2022/09/06 02:54:36;;;;;;;3.80;2.30;;;11.10;99.90;10.60;101565;;;;585906;240;24037;-83
2022/09/06 02:57:04;;;;;;;3.20;2.10;;;11.10;99.90;10.60;101573;;;;586006;240;24048;-83
2022/09/06 02:59:32;;;;;;;2.53;2.27;;;11.20;99.90;10.60;101565;;;;585973;240;24075;-83
2022/09/06 03:02:00;;;;;;;3.23;1.70;;;11.20;99.90;10.70;101568;;;;586140;240;24023;-83
2022/09/06 03:04:31;;;;;;;2.27;2.07;;;11.30;99.90;10.70;101560;;;;598859;240;24020;-83
2022/09/06 03:06:56;;;;;;;3.23;2.27;;;11.30;99.90;10.80;101571;;;;588856;240;24118;-83
2022/09/06 03:09:25;;;;;;;3.67;2.23;;;11.40;99.90;10.80;101561;;;;586007;240;24111;-83
2022/09/06 03:11:52;;;;;;;5.93;2.00;;;11.40;99.90;10.80;101563;;;;586830;239;24010;-82
2022/09/06 03:14:20;;;;;;;3.80;2.63;;;11.50;99.90;10.90;101555;;;;574588;246;24142;-82
2022/09/06 03:16:48;;;;;;;2.07;1.90;;;11.50;99.90;10.90;101557;;;;574170;245;24071;-83
2022/09/06 03:19:16;;;;;;;1.77;1.60;;;11.50;99.90;10.90;101554;;;;599746;239;24038;-84
2022/09/06 03:21:44;;;;;;;5.57;2.17;;;11.50;99.90;10.90;101567;;;;586143;240;24085;-83
2022/09/06 03:24:12;;;;;;;2.03;1.93;;;11.50;99.90;10.90;101557;;;;586014;240;24039;-83
2022/09/06 03:26:40;;;;;;;2.80;2.10;;;11.50;99.90;10.90;101550;;;;586105;240;24039;-83
2022/09/06 03:29:08;;;;;;;2.33;1.20;;;11.50;99.90;10.90;101560;;;;585922;240;24075;-83
2022/09/06 03:31:36;;;;;;;1.10;0.93;;;11.60;99.90;11.00;101558;;;;585956;240;24068;-84
2022/09/06 03:34:04;;;;;;;1.23;1.13;;;11.60;99.90;11.10;101553;;;;573342;246;24122;-84
2022/09/06 03:36:32;;;;;;;1.13;0.87;;;11.70;99.90;11.20;101555;;;;562484;250;24147;-84
2022/09/06 03:39:00;;;;;;;1.63;0.70;;;11.80;99.90;11.30;101553;;;;585829;240;24098;-84
2022/09/06 03:41:28;;;;;;;0.90;0.90;;;11.80;99.90;11.30;101566;;;;585812;240;24091;-84
2022/09/06 03:43:56;;;;;;;0.80;0.80;;;11.90;99.90;11.40;101561;;;;586034;240;24032;-84
2022/09/06 03:46:24;;;;;;;0.60;0.60;;;12.00;99.90;11.40;101567;;;;586204;240;24062;-84
2022/09/06 03:48:52;;;;;;;2.63;0.97;;;12.00;99.90;11.50;101563;;;;585987;240;24075;-84
2022/09/06 03:51:21;;;;;;;1.30;1.20;;;12.10;99.90;11.50;101555;;;;586008;240;24026;-84
2022/09/06 03:53:49;;;;;;;1.53;1.03;;;12.10;99.90;11.60;101560;;;;585928;240;24025;-84
2022/09/06 03:56:18;;;;;;;1.30;1.20;;;12.10;99.90;11.60;101563;;;;573499;246;24101;-84
2022/09/06 03:58:46;;;;;;;0.80;0.80;;;12.10;99.90;11.60;101563;;;;562675;250;24078;-85
2022/09/06 04:01:14;;;;;;;2.10;1.53;;;12.20;99.90;11.60;101560;;;;586034;240;24104;-83
2022/09/06 04:03:42;;;;;;;2.53;1.30;;;12.20;99.90;11.70;101558;;;;598809;240;24031;-83
2022/09/06 04:06:10;;;;;;;1.67;1.50;;;12.20;99.90;11.70;101558;;;;586033;240;25081;-84
2022/09/06 04:08:37;;;;;;;2.67;1.30;;;12.30;99.90;11.70;101560;;;;589477;240;24023;-84
2022/09/06 04:11:05;;;;;;;2.00;1.77;;;12.30;99.90;11.70;101554;;;;598791;240;24058;-84
2022/09/06 04:13:33;;;;;;;3.63;1.37;;;12.30;99.90;11.70;101556;;;;586013;240;24020;-84
2022/09/06 04:16:05;;;;;;;1.27;1.23;;;12.30;99.90;11.70;101552;;;;582395;246;24095;-84
2022/09/06 04:18:30;;;;;;;2.43;1.37;;;12.30;99.90;11.80;101550;;;;573683;245;24148;-84
2022/09/06 04:20:58;;;;;;;6.60;1.50;;;12.30;99.90;11.70;101553;;;;572976;245;24100;-84
2022/09/06 04:23:26;;;;;;;3.50;1.47;;;12.30;99.90;11.70;101549;;;;589987;239;24080;-83
2022/09/06 04:25:54;;;;;;;1.13;1.13;;;12.30;99.90;11.80;101553;;;;591404;239;24065;-83
2022/09/06 04:28:22;;;;;;;15.63;2.33;;;12.30;99.90;11.80;101561;;;;590038;240;24035;-82
2022/09/06 04:30:52;;;;;;;16.87;4.60;;;12.40;99.90;11.80;101557;;;;582896;245;24190;-83
2022/09/06 04:33:24;;;;;;;3.63;1.50;;;12.30;99.90;11.80;101566;;;;565271;250;25155;-83
2022/09/06 04:35:49;;;;;;;2.27;2.07;;;12.40;99.90;11.80;101556;;;;586058;240;24074;-83
2022/09/06 04:38:18;;;;;;;24.97;3.60;;;12.40;99.90;11.80;101560;;;;589758;240;24027;-84
2022/09/06 04:40:46;;;;;;;13.13;2.57;;;12.30;99.90;11.80;101565;;;;586170;240;24054;-83
2022/09/06 04:43:15;;;;;;;10.83;2.33;;;12.40;99.90;11.80;101564;;;;586229;240;24042;-83
2022/09/06 04:45:43;;;;;;;11.37;2.40;;;12.40;99.90;11.80;101566;;;;589905;240;24060;-83
2022/09/06 04:48:11;;;;;;;3.87;2.43;;;12.40;99.90;11.90;101564;;;;589779;240;24020;-84
2022/09/06 04:50:39;;;;;;;3.67;2.17;;;12.40;99.90;11.90;101568;;;;586284;240;24027;-84
2022/09/06 04:53:11;;;;;;;3.70;1.90;;;12.50;99.90;11.90;101564;;;;573823;246;24107;-83
2022/09/06 04:55:35;;;;;;;2.23;1.77;;;12.50;99.90;12.00;101570;;;;574190;250;24123;-84
2022/09/06 04:58:06;;;;;;;7.00;1.73;;;12.60;99.90;12.00;101572;;;;599268;240;24084;-84
2022/09/06 05:00:30;;;;;;;7.40;2.40;;;12.60;99.90;12.10;101573;;;;573331;246;24091;-83
2022/09/06 05:02:58;;;;;;;6.43;2.80;;;12.60;99.90;12.10;101566;;;;563432;248;24154;-84
2022/09/06 05:05:26;;;;;;;6.73;2.80;;;12.70;99.90;12.20;101569;;;;586057;240;24061;-84
2022/09/06 05:07:54;;;;;;;2.97;1.63;;;12.70;99.90;12.20;101563;;;;589575;240;24090;-85
2022/09/06 05:10:26;;;;;;;14.40;2.07;;;12.80;99.90;12.30;101560;;;;573529;246;24086;-85
2022/09/06 05:12:51;;;;;;;11.10;1.93;;;12.90;99.90;12.40;101561;;;;574135;250;24137;-84
2022/09/06 05:15:23;;;;;;;7.40;1.67;;;13.00;99.90;12.40;101565;;;;589490;240;24036;-84
2022/09/06 05:17:47;;;;;;;9.87;2.00;;;12.90;99.90;12.50;101557;;;;589014;240;24041;-84
2022/09/06 05:20:15;;;;;;;21.07;2.73;;;13.10;99.90;12.60;101566;;;;573270;246;24165;-85
2022/09/06 05:22:44;;;;;;;9.47;1.70;;;13.20;99.90;12.70;101567;;;;573033;244;24142;-84
2022/09/06 05:25:13;;;;;;;14.33;2.50;;;13.30;99.90;12.80;101563;;;;570150;251;24103;-84
2022/09/06 05:27:41;;;;;;;9.40;4.50;;;13.30;99.90;12.90;101568;;;;591506;240;25163;-85
2022/09/06 05:30:09;;;;;;;3.40;1.07;;;13.40;99.90;13.10;101574;;;;573230;246;24067;-85
2022/09/06 05:32:37;;;;;;;6.17;1.03;;;13.60;99.90;13.20;101568;;;;575849;245;24089;-85
2022/09/06 05:35:05;;;;;;;5.40;1.37;;;13.70;99.90;13.30;101566;;;;599536;238;24076;-84
2022/09/06 05:37:33;;;;;;;4.47;1.30;;;13.80;99.90;13.30;101567;;;;586881;239;24130;-85
2022/09/06 05:40:00;;;;;;;2.07;0.90;;;13.90;99.90;13.40;101570;;;;590440;240;24075;-84
2022/09/06 05:42:28;;;;;;;18.70;2.60;;;14.00;99.90;13.50;101575;;;;574356;246;24117;-84
2022/09/06 05:44:56;;;;;;;4.83;1.50;;;14.00;99.90;13.60;101566;;;;563258;250;24141;-83
2022/09/06 05:47:24;;;;;;;1.37;1.30;;;14.10;99.90;13.70;101567;;;;586281;240;24032;-85
2022/09/06 05:49:52;;;;;;;5.43;1.60;;;14.20;99.90;13.90;101571;;;;586167;240;24031;-83
2022/09/06 05:52:20;;;;;;;21.73;2.07;;;14.40;99.90;14.00;101574;;;;589422;240;24026;-84
2022/09/06 05:54:48;;;;;;;9.17;1.23;;;14.50;99.90;14.10;101579;;;;573460;246;24111;-84
2022/09/06 05:57:16;;;;;;;11.13;1.33;;;14.70;99.90;14.30;101574;;;;562550;250;24119;-84
2022/09/06 05:59:44;;;;;;;7.90;1.70;;;14.90;99.90;14.60;101578;;;;586063;240;24038;-83
2022/09/06 06:02:12;;;;;;;8.23;1.20;;;15.10;99.90;14.80;101577;;;;573460;246;24087;-83
2022/09/06 06:04:40;;;;;;;5.93;1.20;;;15.30;99.90;15.10;101576;;;;562821;250;24127;-85
2022/09/06 06:07:07;;;;;;;4.03;1.67;;;15.60;99.90;15.40;101573;;;;585938;240;24087;-84
2022/09/06 06:09:35;;;;;;;3.40;1.53;;;15.80;99.90;15.70;101575;;;;589321;240;24059;-84
2022/09/06 06:12:03;;;;;;;2.50;1.00;;;16.10;99.90;16.20;101575;;;;585738;240;24060;-85
2022/09/06 06:14:32;;;;;;;1.80;1.13;;;17.60;99.90;17.50;101575;;;;585632;240;24089;-84
2022/09/06 06:17:01;;;;;;;7.07;1.80;;;19.30;99.90;19.40;101575;;;;585797;240;24018;-85
2022/09/06 06:19:29;;;;;;;0.63;0.63;;;19.30;99.90;21.50;101577;;;;585519;240;24071;-83
2022/09/06 06:21:57;;;;;;;2.07;1.20;;;21.20;99.90;24.10;101580;;;;573128;246;24100;-83
2022/09/06 06:24:24;;;;;;;3.47;1.20;;;23.90;98.80;26.70;101581;;;;562532;250;23104;-84
2022/09/06 06:26:52;;;;;;;3.13;0.90;;;26.40;89.40;28.50;101584;;;;585604;240;23095;-84
2022/09/06 06:29:20;;;;;;;3.87;1.60;;;28.50;77.40;29.20;101588;;;;585766;240;23050;-86
2022/09/06 06:31:48;;;;;;;1.40;0.70;;;29.60;64.80;30.00;101586;;;;573206;246;24230;-85
2022/09/06 06:34:20;;;;;;;1.07;0.70;;;30.40;59.40;30.90;101586;;;;562524;250;23146;-84
2022/09/06 06:36:44;;;;;;;3.80;1.00;;;31.30;56.50;31.60;101585;;;;585339;240;24032;-85
2022/09/06 06:39:12;;;;;;;8.68;1.62;;;32.10;53.90;31.70;101578;;;;573057;246;23112;-85
2022/09/06 06:41:40;;;;;;;3.65;0.85;;;32.30;52.30;31.80;101588;;;;562587;250;23128;-84
2022/09/06 06:44:08;;;;;;;3.97;0.95;;;32.50;51.60;31.80;101587;;;;585553;240;24029;-84
2022/09/06 06:46:36;;;;;;;30.55;4.07;;;32.90;50.00;32.30;101585;;;;590684;239;23037;-85
2022/09/06 06:49:05;;;;;;;1.23;0.98;;;32.80;50.00;33.10;101587;;;;591406;239;23038;-84
2022/09/06 06:51:36;;;;;;;2.33;0.85;;;33.50;49.00;34.10;101592;;;;590929;240;23044;-84
2022/09/06 06:54:00;;;;;;;11.82;2.37;;;34.30;47.80;34.70;101601;;;;599255;239;23084;-84
2022/09/06 06:56:31;;;;;;;5.10;1.15;;;35.10;47.30;34.80;101596;;;;587236;240;23060;-84
2022/09/06 06:59:02;;;;;;;16.15;3.28;;;35.20;45.60;34.40;101598;;;;590093;240;24124;-83
2022/09/06 07:01:27;;;;;;;2.12;1.33;;;35.10;45.50;34.40;101605;;;;589700;240;23052;-85
2022/09/06 07:03:55;;;;;;;2.30;1.15;;;35.00;45.70;34.20;101603;;;;589963;240;27304;-85
2022/09/06 07:06:26;;;;;;;1.30;1.20;;;35.00;45.40;34.50;101595;;;;589741;240;23046;-85
2022/09/06 07:08:51;;;;;;;9.55;1.35;;;35.00;45.40;35.10;101608;;;;591779;240;23040;-85
2022/09/06 07:11:19;;;;;;;0.98;0.80;;;35.50;44.30;35.60;101614;;;;586315;240;24020;-85
2022/09/06 07:13:47;;;;;;;0.75;0.75;;;35.80;44.80;36.40;101617;;;;586344;240;23021;-86
2022/09/06 07:16:21;;;;;;;2.12;0.98;;;36.70;43.10;36.60;101621;;;;586320;240;23030;-86
2022/09/06 07:18:52;;;;;;;1.27;0.50;;;37.00;43.00;36.60;101621;;;;599124;240;23037;-86
2022/09/06 07:21:25;;;;;;;0.95;0.90;;;37.30;42.00;37.10;101622;;;;582680;246;23108;-86
2022/09/06 07:23:50;;;;;;;0.75;0.75;;;37.50;42.40;37.50;101609;;;;576586;245;23231;-86
2022/09/06 07:26:21;;;;;;;2.75;1.00;;;38.00;41.30;38.20;101617;;;;584847;245;23076;-85
2022/09/06 07:28:49;;;;;;;2.15;0.70;;;38.60;40.50;38.70;101622;;;;562384;251;23108;-84
2022/09/06 07:31:14;;;;;;;9.75;1.10;;;39.10;39.50;39.00;101617;;;;588423;240;23101;-85
2022/09/06 07:33:42;;;;;;;5.62;0.90;;;39.40;39.50;39.50;101624;;;;598816;240;23104;-84
2022/09/06 07:36:10;;;;;;;2.47;0.70;;;40.00;38.30;39.40;101620;;;;586181;240;23048;-85
2022/09/06 07:38:39;;;;;;;7.62;1.40;;;40.20;37.90;39.80;101633;;;;573527;246;23140;-85
2022/09/06 07:41:07;;;;;;;1.30;0.70;;;40.40;37.40;40.00;101625;;;;571880;246;24115;-85
2022/09/06 07:43:35;;;;;;;2.53;0.80;;;40.60;36.50;40.10;101625;;;;590343;240;23095;-85
2022/09/06 07:46:09;;;;;;;2.30;0.88;;;40.60;36.40;39.70;101623;;;;598738;240;23233;-86
2022/09/06 07:48:37;;;;;;;8.65;2.15;;;40.40;36.80;39.80;101623;;;;590073;240;24078;-85
2022/09/06 07:51:11;;;;;;;6.72;1.25;;;40.40;36.50;39.70;101621;;;;565679;250;23157;-85
2022/09/06 07:53:38;;;;;;;1.98;1.17;;;40.30;36.20;39.30;101620;;;;598265;240;24077;-85
2022/09/06 07:56:06;;;;;;;0.68;0.55;;;40.10;37.00;39.10;101613;;;;565759;250;23122;-86
2022/09/06 07:58:34;;;;;;;3.17;0.75;;;39.80;36.30;39.00;101618;;;;586748;239;23037;-84
2022/09/06 08:01:28;;;;;;;5.00;0.80;;;39.70;36.50;38.70;101612;;;;599755;239;23077;-84
2022/09/06 08:03:55;;;;;;;2.33;0.85;;;39.60;36.60;39.30;101625;;;;573850;246;23121;-85
2022/09/06 08:06:25;;;;;;;1.40;0.85;;;39.80;37.20;40.00;101612;;;;565974;250;23121;-87
2022/09/06 08:08:50;;;;;;;7.20;1.52;;;40.30;36.50;40.40;101620;;;;589484;240;24085;-86
2022/09/06 08:11:18;;;;;;;2.87;0.90;;;40.90;36.20;41.00;101620;;;;573803;246;23129;-86
2022/09/06 08:13:53;;;;;;;1.80;0.70;;;41.50;35.60;41.00;101614;;;;571358;251;24139;-85
2022/09/06 08:16:21;;;;;;;1.70;0.70;;;41.70;34.90;41.30;101614;;;;583796;240;34877;-84
2022/09/06 08:18:46;;;;;;;0.57;0.50;;;42.10;33.70;41.30;101619;;;;573157;246;23246;-86
2022/09/06 08:21:14;;;;;;;2.37;0.62;;;42.10;33.70;41.00;101619;;;;562265;251;23094;-86
2022/09/06 08:23:47;;;;;;;3.20;0.80;;;42.00;34.30;41.50;101612;;;;598986;240;23098;-86
2022/09/06 08:26:18;;;;;;;0.70;0.70;;;42.20;34.00;41.60;101613;;;;598677;240;23054;-86
2022/09/06 08:28:43;;;;;;;8.27;1.77;;;42.40;33.10;41.80;101604;;;;598112;240;23033;-86
2022/09/06 08:31:11;;;;;;;1.83;1.27;;;42.50;34.00;42.50;101619;;;;586159;240;23057;-86
2022/09/06 08:33:43;;;;;;;1.12;0.40;;;43.20;33.50;41.60;101623;;;;573507;246;23148;-86
2022/09/06 08:36:08;;;;;;;1.92;0.62;;;42.20;33.70;40.70;101609;;;;562293;250;23128;-86
2022/09/06 08:38:36;;;;;;;11.55;1.65;;;42.20;33.70;40.60;101608;;;;589109;240;24052;-86
2022/09/06 08:41:25;;;;;;;14.07;1.83;;;42.00;33.80;40.70;101608;;;;585730;240;23028;-86
2022/09/06 08:43:58;;;;;;;2.70;0.70;;;41.70;34.40;41.60;101616;;;;598617;240;23096;-86
2022/09/06 08:46:29;;;;;;;1.17;0.60;;;42.60;31.60;41.40;101608;;;;588624;240;23045;-86
2022/09/06 08:48:57;;;;;;;5.07;0.73;;;42.50;31.40;41.20;101616;;;;598351;240;23091;-86
2022/09/06 08:51:43;;;;;;;14.65;2.20;;;42.40;31.40;40.40;101612;;;;586060;240;24026;-86
2022/09/06 08:54:17;;;;;;;1.08;0.60;;;42.00;31.60;40.30;101596;;;;590124;240;23033;-86
2022/09/06 08:57:09;;;;;;;5.47;0.90;;;41.80;32.30;40.80;101602;;;;589452;240;23030;-86
2022/09/06 08:59:42;;;;;;;0.65;0.40;;;42.20;31.60;39.70;101602;;;;584058;240;23094;-85
2022/09/06 09:02:13;;;;;;;1.90;0.60;;;41.50;31.10;38.60;101597;;;;585914;240;23030;-85
2022/09/06 09:04:44;;;;;;;3.25;1.10;;;40.70;31.70;37.90;101585;;;;565193;250;23111;-86
2022/09/06 09:07:20;;;;;;;2.00;0.65;;;39.70;32.70;37.90;101597;;;;589691;240;23042;-84
2022/09/06 09:09:48;;;;;;;0.70;0.70;;;39.50;32.60;37.60;101599;;;;563760;250;23136;-85
2022/09/06 09:12:17;;;;;;;4.75;0.77;;;39.10;32.80;37.80;101595;;;;600264;239;23052;-85
2022/09/06 09:14:48;;;;;;;0.50;0.40;;;39.10;32.70;38.00;101590;;;;590212;240;23104;-86
2022/09/06 09:17:15;;;;;;;0.62;0.50;;;39.50;32.30;37.80;101592;;;;590007;240;23079;-86
2022/09/06 09:19:43;;;;;;;0.50;0.50;;;39.40;32.50;38.20;101602;;;;563502;250;23138;-86
2022/09/06 09:22:11;;;;;;;0.62;0.57;;;39.70;32.50;38.30;101596;;;;599611;239;23022;-86
2022/09/06 09:24:39;;;;;;;4.00;0.90;;;39.80;31.70;38.20;101586;;;;590270;240;24100;-86
2022/09/06 09:27:10;;;;;;;3.70;1.50;;;39.80;32.10;38.20;101580;;;;574044;246;23160;-86
2022/09/06 09:29:53;;;;;;;1.02;0.70;;;39.90;32.20;37.60;101577;;;;581680;246;24122;-83
2022/09/06 09:32:33;;;;;;;0.75;0.57;;;39.50;32.90;37.90;101578;;;;594627;241;23074;-86
2022/09/06 09:35:22;;;;;;;0.68;0.45;;;39.80;31.50;36.50;101575;;;;562828;251;23120;-83
2022/09/06 09:38:08;;;;;;;0.50;0.50;;;39.00;32.00;34.60;101570;;;;585331;241;24076;-84
2022/09/06 09:40:42;;;;;;;1.02;1.02;;;37.20;33.60;34.40;101567;;;;585466;241;23044;-87
2022/09/06 09:43:19;;;;;;;0.80;0.40;;;36.50;34.50;34.00;101566;;;;584802;241;23092;-82
2022/09/06 09:45:48;;;;;;;0.57;0.55;;;36.00;35.20;32.50;101562;;;;585012;241;24065;-81
2022/09/06 09:48:19;;;;;;;0.57;0.57;;;33.30;38.10;30.90;101559;;;;583044;241;23100;-81
2022/09/06 09:50:46;;;;;;;0.60;0.60;;;33.20;38.10;29.10;101550;;;;585641;241;23045;-82
2022/09/06 09:53:14;;;;;;;1.10;0.40;;;31.40;39.40;29.40;101557;;;;585650;241;23072;-81
2022/09/06 09:55:43;;;;;;;0.75;0.35;;;30.80;40.40;30.40;101549;;;;585744;241;23036;-84
2022/09/06 09:58:34;;;;;;;0.30;0.30;;;31.50;39.70;32.30;101553;;;;594912;241;24079;-80
2022/09/06 10:01:11;;;;;;;0.98;0.40;;;33.20;38.20;33.90;101553;;;;585593;241;26268;-88
2022/09/06 10:03:44;;;;;;;6.62;0.60;;;35.10;36.50;35.10;101548;;;;593924;241;23079;-83
2022/09/06 10:06:09;;;;;;;5.75;1.00;;;36.70;35.40;35.70;101548;;;;573116;247;24131;-81
2022/09/06 10:08:38;;;;;;;1.00;0.60;;;37.50;34.80;35.70;101554;;;;585830;241;23041;-83
2022/09/06 10:11:07;;;;;;;1.65;0.50;;;37.70;34.30;34.70;101545;;;;573209;247;24108;-80
2022/09/06 10:13:35;;;;;;;0.60;0.57;;;37.30;34.30;33.20;101555;;;;585571;241;24092;-77
2022/09/06 10:16:02;;;;;;;0.40;0.40;;;35.90;35.00;30.90;101546;;;;594612;241;23042;-74
2022/09/06 10:18:33;;;;;;;5.72;0.85;;;33.70;36.50;29.00;101555;;;;594857;241;23041;-82
2022/09/06 10:21:04;;;;;;;0.85;0.30;;;29.30;41.20;27.20;101543;;;;594469;239;23035;-80
2022/09/06 10:24:05;;;;;;;0.70;0.40;;;29.20;40.60;25.90;101537;;;;582865;246;23154;-77
2022/09/06 10:26:43;;;;;;;3.83;0.60;;;25.90;45.20;24.50;101532;;;;586256;241;23050;-83
2022/09/06 10:29:11;;;;;;;0.13;0.13;;;25.80;45.10;23.80;101528;;;;595489;241;24063;-80
2022/09/06 10:32:00;;;;;;;0.73;0.33;;;24.10;48.00;23.30;101522;;;;595055;241;24061;-79
2022/09/06 10:34:37;;;;;;;0.73;0.50;;;24.00;47.90;22.70;101523;;;;560341;251;23209;-79
2022/09/06 10:37:39;;;;;;;0.77;0.37;;;23.50;48.90;22.00;101526;;;;584163;241;24068;-80
2022/09/06 10:40:13;;;;;;;1.17;0.60;;;22.80;50.30;21.10;101525;;;;583091;240;24070;-79
2022/09/06 10:42:53;;;;;;;3.17;0.60;;;22.00;51.50;20.60;101520;;;;584379;240;24083;-79
2022/09/06 10:45:45;;;;;;;3.93;0.70;;;21.40;51.80;20.20;101518;;;;586355;240;24005;-84
2022/09/06 10:48:40;;;;;;;2.00;0.37;;;20.90;53.30;19.60;101521;;;;571480;246;24120;-86
2022/09/06 10:51:33;;;;;;;2.00;0.57;;;20.30;55.50;19.30;101515;;;;589776;240;24080;-86
2022/09/06 10:54:05;;;;;;;0.23;0.23;;;19.90;57.10;19.20;101519;;;;577342;246;24068;-81
2022/09/06 10:56:43;;;;;;;0.30;0.30;;;19.70;57.60;18.80;101519;;;;562781;250;24054;-81
2022/09/06 10:59:28;;;;;;;3.50;0.20;;;19.40;58.00;18.40;101513;;;;561222;252;24117;-76
2022/09/06 11:02:53;;;;;;;2.60;0.60;;;19.10;59.70;18.20;101503;;;;560803;252;24179;-75
2022/09/06 11:05:25;;;;;;;7.53;0.80;;;18.80;61.10;18.10;101502;;;;565936;247;24077;-87
2022/09/06 11:08:02;;;;;;;0.87;0.50;;;18.50;63.30;18.00;101504;;;;582330;243;24104;-86
2022/09/06 11:10:28;;;;;;;1.50;0.53;;;18.50;63.20;17.90;101501;;;;591118;240;24081;-85
2022/09/06 11:13:17;;;;;;;2.73;0.37;;;18.40;63.20;17.80;101494;;;;579687;248;24073;-87
2022/09/06 11:15:56;;;;;;;0.30;0.30;;;18.30;63.70;17.60;101491;;;;582050;243;24032;-85
2022/09/06 11:18:40;;;;;;;0.67;0.53;;;18.20;63.90;17.40;101490;;;;579625;244;24169;-86
2022/09/06 11:21:20;;;;;;;0.40;0.20;;;17.90;64.30;17.30;101486;;;;574313;247;24066;-86
2022/09/06 11:24:15;;;;;;;1.03;0.37;;;17.80;64.20;17.10;101484;;;;590684;243;24062;-85
2022/09/06 11:27:20;;;;;;;1.80;0.50;;;17.50;64.10;17.00;101479;;;;582268;243;24107;-85
2022/09/06 11:29:55;;;;;;;0.53;0.50;;;17.50;64.10;16.90;101483;;;;571850;247;24108;-86
2022/09/06 11:32:51;;;;;;;0.40;0.40;;;17.40;64.80;16.80;101467;;;;579929;246;24097;-85